createdAt,value
2019-03-28T00:01:27.278Z,13.90
2019-03-28T00:03:58.893Z,14.07
2019-03-28T00:06:30.314Z,13.47
2019-03-28T00:09:01.747Z,14.63
2019-03-28T00:11:35.165Z,15.05
2019-03-28T00:14:06.622Z,14.75
2019-03-28T00:16:38.292Z,14.20
2019-03-28T00:19:09.811Z,13.97
2019-03-28T00:21:41.246Z,14.27
2019-03-28T00:24:20.438Z,13.77
2019-03-28T00:26:51.983Z,14.77
2019-03-28T00:29:23.504Z,15.13
2019-03-28T00:31:54.909Z,15.03
2019-03-28T00:34:26.321Z,14.57
2019-03-28T00:36:57.713Z,15.87
2019-03-28T00:39:29.469Z,15.67
2019-03-28T00:42:00.978Z,15.77
2019-03-28T00:44:32.399Z,18.53
2019-03-28T00:47:05.128Z,16.20
2019-03-28T00:49:36.624Z,17.13
2019-03-28T00:52:08.437Z,17.10
2019-03-28T00:54:40.136Z,16.77
2019-03-28T00:57:11.523Z,17.63
2019-03-28T00:59:43.031Z,18.37
2019-03-28T01:02:14.795Z,18.60
2019-03-28T01:04:46.235Z,17.93
2019-03-28T01:07:19.960Z,15.60
2019-03-28T01:09:51.588Z,17.53
2019-03-28T01:12:22.972Z,18.27
2019-03-28T01:14:55.426Z,17.12
2019-03-28T01:17:27.310Z,17.80
2019-03-28T01:19:58.903Z,17.30
2019-03-28T01:22:31.057Z,16.15
2019-03-28T01:25:02.586Z,17.07
2019-03-28T01:27:33.993Z,16.62
2019-03-28T01:30:06.381Z,16.93
2019-03-28T01:32:37.846Z,17.27
2019-03-28T01:35:09.419Z,17.30
2019-03-28T01:37:40.924Z,15.57
2019-03-28T01:40:12.455Z,16.53
2019-03-28T01:42:43.956Z,16.37
2019-03-28T01:45:15.404Z,14.97
2019-03-28T01:47:47.080Z,15.57
2019-03-28T01:50:18.587Z,15.97
2019-03-28T01:52:51.097Z,15.13
2019-03-28T01:55:22.818Z,14.77
2019-03-28T01:57:54.536Z,15.53
2019-03-28T02:00:25.921Z,14.40
2019-03-28T02:02:57.291Z,15.57
2019-03-28T02:05:29.350Z,14.53
2019-03-28T02:08:02.715Z,14.30
2019-03-28T02:10:34.241Z,14.13
2019-03-28T02:13:05.654Z,13.53
2019-03-28T02:15:38.041Z,13.67
2019-03-28T02:18:09.508Z,14.67
2019-03-28T02:20:41.186Z,13.80
2019-03-28T02:23:13.044Z,13.93
2019-03-28T02:25:44.872Z,15.27
2019-03-28T02:28:16.757Z,13.90
2019-03-28T02:30:48.279Z,14.20
2019-03-28T02:33:19.711Z,13.63
2019-03-28T02:35:51.519Z,14.40
2019-03-28T02:38:23.648Z,14.80
2019-03-28T02:40:55.555Z,14.70
2019-03-28T02:43:27.435Z,14.67
2019-03-28T02:45:59.171Z,13.73
2019-03-28T02:48:32.648Z,13.63
2019-03-28T02:51:04.205Z,14.20
2019-03-28T02:53:35.635Z,13.58
2019-03-28T02:56:07.231Z,14.87
2019-03-28T02:58:38.620Z,13.80
2019-03-28T03:01:10.004Z,14.27
2019-03-28T03:03:41.502Z,13.23
2019-03-28T03:06:13.203Z,13.57
2019-03-28T03:08:44.841Z,12.80
2019-03-28T03:11:16.284Z,12.83
2019-03-28T03:13:47.672Z,13.40
2019-03-28T03:16:19.127Z,12.27
2019-03-28T03:18:50.521Z,12.27
2019-03-28T03:21:22.262Z,12.33
2019-03-28T03:23:54.123Z,12.07
2019-03-28T03:26:25.679Z,11.53
2019-03-28T03:28:58.561Z,10.97
2019-03-28T03:31:32.443Z,10.80
2019-03-28T03:34:05.334Z,11.73
2019-03-28T03:36:38.681Z,11.63
2019-03-28T03:39:10.907Z,11.33
2019-03-28T03:41:42.637Z,11.43
2019-03-28T03:44:14.054Z,11.30
2019-03-28T03:46:45.965Z,10.53
2019-03-28T03:49:18.304Z,10.87
2019-03-28T03:51:49.822Z,9.40
2019-03-28T03:54:22.004Z,9.87
2019-03-28T03:56:53.602Z,9.83
2019-03-28T03:59:25.220Z,10.23
2019-03-28T04:01:56.891Z,10.43
2019-03-28T04:04:28.844Z,11.77
2019-03-28T04:07:00.690Z,11.03
2019-03-28T04:09:33.509Z,10.77
2019-03-28T04:12:04.857Z,10.90
2019-03-28T04:14:36.237Z,10.93
2019-03-28T04:17:07.970Z,11.63
2019-03-28T04:19:39.912Z,10.40
2019-03-28T04:22:11.300Z,11.97
2019-03-28T04:24:42.710Z,11.60
2019-03-28T04:27:14.360Z,10.70
2019-03-28T04:29:45.753Z,12.43
2019-03-28T04:32:17.392Z,12.17
2019-03-28T04:34:48.842Z,11.70
2019-03-28T04:37:20.908Z,12.50
2019-03-28T04:39:52.299Z,13.07
2019-03-28T04:42:23.957Z,13.10
2019-03-28T04:44:55.913Z,12.10
2019-03-28T04:47:27.773Z,12.93
2019-03-28T04:49:59.306Z,13.60
2019-03-28T04:52:32.016Z,13.63
2019-03-28T04:55:03.849Z,14.33
2019-03-28T04:57:35.601Z,14.70
2019-03-28T05:00:07.795Z,14.47
2019-03-28T05:02:39.547Z,15.25
2019-03-28T05:05:11.009Z,16.07
2019-03-28T05:07:42.463Z,13.68
2019-03-28T05:10:15.316Z,15.80
2019-03-28T05:12:47.470Z,16.53
2019-03-28T05:15:20.363Z,16.40
2019-03-28T05:17:52.166Z,17.20
2019-03-28T05:20:24.159Z,16.63
2019-03-28T05:22:55.551Z,18.43
2019-03-28T05:25:26.929Z,18.27
2019-03-28T05:27:59.328Z,19.03
2019-03-28T05:30:31.727Z,18.23
2019-03-28T05:33:03.409Z,18.57
2019-03-28T05:35:35.007Z,18.70
2019-03-28T05:38:06.431Z,19.23
2019-03-28T05:40:38.102Z,19.23
2019-03-28T05:43:09.824Z,18.90
2019-03-28T05:45:41.488Z,19.73
2019-03-28T05:48:13.130Z,19.27
2019-03-28T05:50:45.033Z,17.97
2019-03-28T05:53:16.982Z,19.30
2019-03-28T05:55:48.478Z,20.43
2019-03-28T05:58:21.753Z,19.63
2019-03-28T06:00:57.792Z,19.93
2019-03-28T06:03:29.725Z,19.75
2019-03-28T06:06:01.088Z,20.50
2019-03-28T06:08:32.975Z,20.03
2019-03-28T06:11:06.355Z,20.93
2019-03-28T06:13:38.062Z,21.03
2019-03-28T06:16:09.453Z,20.77
2019-03-28T06:18:41.098Z,20.40
2019-03-28T06:21:12.470Z,20.60
2019-03-28T06:23:44.390Z,19.87
2019-03-28T06:26:15.874Z,20.17
2019-03-28T06:28:47.707Z,19.43
2019-03-28T06:31:19.406Z,20.87
2019-03-28T06:33:51.608Z,20.40
2019-03-28T06:36:23.412Z,20.17
2019-03-28T06:38:55.137Z,20.90
2019-03-28T06:41:28.143Z,20.43
2019-03-28T06:43:59.794Z,20.13
2019-03-28T06:46:31.536Z,19.17
2019-03-28T06:49:03.668Z,18.42
2019-03-28T06:51:36.493Z,20.92
2019-03-28T06:54:08.263Z,21.13
2019-03-28T06:56:39.859Z,20.80
2019-03-28T06:59:11.720Z,20.17
2019-03-28T07:01:44.717Z,20.27
2019-03-28T07:04:16.625Z,19.55
2019-03-28T07:06:48.004Z,21.95
2019-03-28T07:09:19.375Z,21.10
2019-03-28T07:11:51.483Z,18.47
2019-03-28T07:14:22.856Z,19.00
2019-03-28T07:16:54.659Z,19.90
2019-03-28T07:19:26.285Z,18.33
2019-03-28T07:21:57.960Z,18.73
2019-03-28T07:24:29.937Z,17.37
2019-03-28T07:27:01.430Z,17.43
2019-03-28T07:29:33.078Z,16.20
2019-03-28T07:32:06.360Z,16.70
2019-03-28T07:34:38.078Z,16.10
2019-03-28T07:37:09.448Z,14.57
2019-03-28T07:39:41.364Z,15.67
2019-03-28T07:42:13.072Z,14.47
2019-03-28T07:44:44.684Z,15.90
2019-03-28T07:47:16.378Z,13.50
2019-03-28T07:49:48.009Z,13.18
2019-03-28T07:52:20.164Z,13.87
2019-03-28T07:54:51.882Z,14.53
2019-03-28T07:57:23.274Z,14.00
2019-03-28T08:00:04.023Z,14.20
2019-03-28T08:02:27.706Z,15.13
2019-03-28T08:05:01.557Z,13.73
2019-03-28T08:07:44.385Z,13.27
2019-03-28T08:10:08.179Z,14.17
2019-03-28T08:12:40.030Z,13.07
2019-03-28T08:15:12.294Z,11.83
2019-03-28T08:17:44.012Z,11.77
2019-03-28T08:20:15.762Z,12.43
2019-03-28T08:22:47.281Z,12.47
2019-03-28T08:25:18.771Z,11.57
2019-03-28T08:27:50.676Z,12.37
2019-03-28T08:30:36.489Z,14.23
2019-03-28T08:33:08.263Z,13.17
2019-03-28T08:35:39.818Z,12.07
2019-03-28T08:38:11.228Z,13.33
2019-03-28T08:40:44.822Z,12.20
2019-03-28T08:43:16.996Z,11.90
2019-03-28T08:45:48.381Z,12.27
2019-03-28T08:48:19.786Z,12.10
2019-03-28T08:50:51.198Z,13.13
2019-03-28T08:53:22.562Z,11.75
2019-03-28T08:55:56.290Z,11.17
2019-03-28T08:58:27.613Z,10.57
2019-03-28T09:00:59.295Z,11.53
2019-03-28T09:03:30.930Z,12.03
2019-03-28T09:06:02.919Z,10.73
2019-03-28T09:08:34.312Z,10.60
2019-03-28T09:11:06.047Z,11.27
2019-03-28T09:13:38.433Z,10.80
2019-03-28T09:16:10.197Z,11.30
2019-03-28T09:18:42.193Z,11.90
2019-03-28T09:21:13.919Z,10.60
2019-03-28T09:23:45.298Z,10.13
2019-03-28T09:26:16.674Z,9.63
2019-03-28T09:28:48.084Z,11.17
2019-03-28T09:31:22.269Z,9.07
2019-03-28T09:33:54.134Z,7.22
2019-03-28T09:36:26.310Z,7.13
2019-03-28T09:38:58.141Z,5.63
2019-03-28T09:41:30.519Z,6.10
2019-03-28T09:44:02.182Z,6.77
2019-03-28T09:46:33.556Z,6.50
2019-03-28T09:49:05.030Z,6.83
2019-03-28T09:51:36.414Z,6.77
2019-03-28T09:54:07.796Z,5.83
2019-03-28T09:56:39.440Z,5.87
2019-03-28T09:59:10.829Z,5.53
2019-03-28T10:01:42.731Z,4.57
2019-03-28T10:04:14.589Z,5.97
2019-03-28T10:06:46.008Z,5.77
2019-03-28T10:09:17.718Z,6.20
2019-03-28T10:11:49.153Z,5.20
2019-03-28T10:14:20.527Z,6.03
2019-03-28T10:16:52.230Z,5.10
2019-03-28T10:19:23.614Z,5.50
2019-03-28T10:21:55.545Z,5.30
2019-03-28T10:24:26.918Z,4.55
2019-03-28T10:26:58.431Z,5.53
2019-03-28T10:29:30.385Z,6.63
2019-03-28T10:32:01.879Z,5.60
2019-03-28T10:34:33.615Z,5.17
2019-03-28T10:37:05.077Z,4.93
2019-03-28T10:39:36.766Z,5.20
2019-03-28T10:42:09.158Z,5.90
2019-03-28T10:44:41.067Z,5.67
2019-03-28T10:47:12.550Z,6.13
2019-03-28T10:49:44.479Z,5.40
2019-03-28T10:52:16.437Z,5.57
2019-03-28T10:54:48.273Z,5.73
2019-03-28T10:57:29.725Z,4.50
2019-03-28T10:59:52.768Z,4.50
2019-03-28T11:02:24.662Z,4.63
2019-03-28T11:04:56.361Z,4.53
2019-03-28T11:07:27.770Z,4.90
2019-03-28T11:09:59.355Z,3.90
2019-03-28T11:12:31.093Z,4.40
2019-03-28T11:15:02.471Z,4.07
2019-03-28T11:17:34.652Z,4.40
2019-03-28T11:20:07.117Z,3.33
2019-03-28T11:22:38.485Z,2.97
2019-03-28T11:25:10.081Z,3.30
2019-03-28T11:27:41.602Z,3.10
2019-03-28T11:30:13.423Z,3.57
2019-03-28T11:32:45.371Z,3.12
2019-03-28T11:35:16.974Z,3.10
2019-03-28T11:37:48.591Z,2.83
2019-03-28T11:40:20.448Z,2.90
2019-03-28T11:42:52.323Z,4.08
2019-03-28T11:45:26.854Z,3.50
2019-03-28T11:47:56.816Z,3.40
2019-03-28T11:50:28.664Z,2.92
2019-03-28T11:53:00.169Z,3.17
2019-03-28T11:55:31.588Z,3.80
2019-03-28T11:58:03.531Z,3.63
2019-03-28T12:00:34.931Z,3.97
2019-03-28T12:03:06.872Z,3.40
2019-03-28T12:05:38.253Z,4.17
2019-03-28T12:08:10.216Z,4.17
2019-03-28T12:10:42.164Z,4.17
2019-03-28T12:13:13.624Z,4.50
2019-03-28T12:15:45.265Z,4.47
2019-03-28T12:18:16.884Z,4.50
2019-03-28T12:20:48.470Z,4.93
2019-03-28T12:23:20.143Z,5.70
2019-03-28T12:25:51.860Z,5.03
2019-03-28T12:28:24.196Z,5.50
2019-03-28T12:30:56.093Z,5.43
2019-03-28T12:33:28.435Z,6.57
2019-03-28T12:35:59.804Z,5.07
2019-03-28T12:38:31.505Z,4.53
2019-03-28T12:41:02.930Z,5.53
2019-03-28T12:43:35.132Z,5.40
2019-03-28T12:46:06.522Z,5.03
2019-03-28T12:48:38.160Z,6.20
2019-03-28T12:51:10.128Z,5.60
2019-03-28T12:53:41.991Z,5.30
2019-03-28T12:56:13.724Z,4.50
2019-03-28T12:58:45.873Z,4.70
2019-03-28T13:01:17.521Z,5.40
2019-03-28T13:03:49.107Z,5.70
2019-03-28T13:06:20.784Z,4.90
2019-03-28T13:08:52.097Z,4.55
2019-03-28T13:11:23.964Z,4.73
2019-03-28T13:13:55.702Z,6.27
2019-03-28T13:16:27.305Z,5.53
2019-03-28T13:19:00.241Z,5.50
2019-03-28T13:21:32.116Z,5.37
2019-03-28T13:24:03.496Z,5.00
2019-03-28T13:26:34.989Z,4.20
2019-03-28T13:29:06.422Z,4.83
2019-03-28T13:31:38.183Z,5.63
2019-03-28T13:34:10.500Z,5.30
2019-03-28T13:36:42.976Z,5.00
2019-03-28T13:39:14.734Z,5.37
2019-03-28T13:41:46.398Z,5.30
2019-03-28T13:44:17.856Z,4.30
2019-03-28T13:46:50.215Z,5.00
2019-03-28T13:49:21.866Z,4.77
2019-03-28T13:51:56.294Z,6.20
2019-03-28T13:54:28.070Z,6.03
2019-03-28T13:57:00.115Z,5.80
2019-03-28T13:59:35.307Z,4.90
2019-03-28T14:02:07.638Z,4.50
2019-03-28T14:04:39.098Z,4.90
2019-03-28T14:07:11.122Z,4.27
2019-03-28T14:09:44.649Z,4.63
2019-03-28T14:12:16.347Z,3.60
2019-03-28T14:14:47.823Z,3.60
2019-03-28T14:17:19.710Z,3.77
2019-03-28T14:19:51.243Z,3.22
2019-03-28T14:22:23.849Z,4.23
2019-03-28T14:24:55.498Z,4.12
2019-03-28T14:27:27.386Z,3.33
2019-03-28T14:29:58.802Z,4.17
2019-03-28T14:32:33.097Z,4.22
2019-03-28T14:35:04.259Z,4.17
2019-03-28T14:37:35.727Z,4.87
2019-03-28T14:40:08.217Z,5.03
2019-03-28T14:42:40.808Z,5.13
2019-03-28T14:45:12.572Z,5.80
2019-03-28T14:47:44.594Z,4.50
2019-03-28T14:50:18.466Z,5.20
2019-03-28T14:52:50.166Z,4.75
2019-03-28T14:55:22.293Z,4.70
2019-03-28T14:57:53.765Z,5.40
2019-03-28T15:00:46.776Z,5.30
2019-03-28T15:03:26.203Z,4.10
2019-03-28T15:05:52.975Z,4.00
2019-03-28T15:08:24.369Z,3.77
2019-03-28T15:10:55.773Z,3.90
2019-03-28T15:13:27.515Z,3.77
2019-03-28T15:15:59.278Z,3.30
2019-03-28T15:18:31.213Z,3.73
2019-03-28T15:21:02.611Z,4.53
2019-03-28T15:23:34.045Z,4.83
2019-03-28T15:26:06.139Z,4.00
2019-03-28T15:28:37.555Z,4.20
2019-03-28T15:31:08.951Z,3.70
2019-03-28T15:33:40.726Z,4.03
2019-03-28T15:36:12.181Z,4.13
2019-03-28T15:38:43.914Z,3.60
2019-03-28T15:41:16.062Z,5.00
2019-03-28T15:43:47.924Z,4.50
2019-03-28T15:46:20.081Z,4.70
2019-03-28T15:48:51.728Z,4.47
2019-03-28T15:51:23.696Z,4.50
2019-03-28T15:53:55.903Z,4.57
2019-03-28T15:56:27.291Z,4.27
2019-03-28T15:58:59.216Z,4.28
2019-03-28T16:01:30.786Z,4.50
2019-03-28T16:04:02.833Z,4.87
2019-03-28T16:06:34.217Z,5.65
2019-03-28T16:09:07.498Z,4.50
2019-03-28T16:11:39.126Z,5.83
2019-03-28T16:14:11.050Z,5.30
2019-03-28T16:16:42.475Z,4.97
2019-03-28T16:19:14.210Z,4.63
2019-03-28T16:21:46.639Z,4.90
2019-03-28T16:24:18.065Z,4.73
2019-03-28T16:26:49.971Z,4.97
2019-03-28T16:29:21.358Z,4.37
2019-03-28T16:31:53.055Z,4.47
2019-03-28T16:34:24.459Z,4.60
2019-03-28T16:36:56.138Z,4.05
2019-03-28T16:39:28.208Z,4.25
2019-03-28T16:41:59.947Z,4.15
2019-03-28T16:44:31.438Z,4.22
2019-03-28T16:47:02.865Z,3.80
2019-03-28T16:49:34.671Z,2.10
2019-03-28T16:52:06.707Z,2.00
2019-03-28T16:54:38.094Z,1.57
2019-03-28T16:57:09.488Z,1.67
2019-03-28T16:59:43.140Z,1.77
2019-03-28T17:02:14.562Z,1.57
2019-03-28T17:04:46.349Z,1.90
2019-03-28T17:07:18.195Z,1.40
2019-03-28T17:09:50.455Z,1.75
2019-03-28T17:12:21.921Z,2.17
2019-03-28T17:14:53.912Z,2.20
2019-03-28T17:17:25.601Z,2.27
2019-03-28T17:19:57.121Z,3.07
2019-03-28T17:22:28.523Z,3.67
2019-03-28T17:25:00.054Z,3.55
2019-03-28T17:27:32.277Z,2.90
2019-03-28T17:30:07.362Z,2.73
2019-03-28T17:32:39.123Z,3.67
2019-03-28T17:35:12.976Z,4.03
2019-03-28T17:37:44.981Z,2.80
2019-03-28T17:40:19.751Z,3.73
2019-03-28T17:42:51.144Z,4.60
2019-03-28T17:45:22.547Z,3.90
2019-03-28T17:47:54.418Z,3.83
2019-03-28T17:50:25.860Z,3.53
2019-03-28T17:52:57.273Z,4.13
2019-03-28T17:55:29.767Z,4.33
2019-03-28T17:58:01.686Z,4.43
2019-03-28T18:00:33.445Z,3.98
2019-03-28T18:03:09.542Z,4.53
2019-03-28T18:05:40.676Z,4.40
2019-03-28T18:08:11.982Z,4.60
2019-03-28T18:10:43.715Z,4.30
2019-03-28T18:13:15.082Z,4.62
2019-03-28T18:15:46.889Z,4.80
2019-03-28T18:18:18.558Z,4.53
2019-03-28T18:20:50.336Z,5.17
2019-03-28T18:23:21.705Z,4.97
2019-03-28T18:25:53.962Z,4.30
2019-03-28T18:28:25.913Z,5.00
2019-03-28T18:30:57.375Z,4.70
2019-03-28T18:33:29.841Z,5.60
2019-03-28T18:36:01.839Z,4.73
2019-03-28T18:38:33.540Z,5.17
2019-03-28T18:41:05.185Z,5.03
2019-03-28T18:43:36.587Z,4.63
2019-03-28T18:46:09.677Z,5.07
2019-03-28T18:48:41.776Z,4.43
2019-03-28T18:51:13.381Z,5.00
2019-03-28T18:53:45.451Z,5.47
2019-03-28T18:56:17.141Z,5.60
2019-03-28T18:58:49.011Z,5.67
2019-03-28T19:01:20.713Z,5.07
2019-03-28T19:03:52.465Z,4.70
2019-03-28T19:06:23.943Z,5.20
2019-03-28T19:08:55.869Z,5.30
2019-03-28T19:11:27.877Z,7.10
2019-03-28T19:13:59.484Z,6.72
2019-03-28T19:16:31.189Z,6.62
2019-03-28T19:19:02.878Z,6.28
2019-03-28T19:21:34.734Z,5.87
2019-03-28T19:24:06.187Z,5.10
2019-03-28T19:26:37.966Z,4.97
2019-03-28T19:29:09.613Z,6.17
2019-03-28T19:31:42.135Z,5.77
2019-03-28T19:34:13.904Z,6.73
2019-03-28T19:36:45.869Z,6.33
2019-03-28T19:39:26.878Z,5.83
2019-03-28T19:41:58.655Z,5.97
2019-03-28T19:44:30.637Z,6.23
2019-03-28T19:47:03.478Z,5.53
2019-03-28T19:49:36.008Z,6.00
2019-03-28T19:52:07.652Z,5.67
2019-03-28T19:54:39.641Z,6.33
2019-03-28T19:57:11.118Z,6.27
2019-03-28T19:59:46.337Z,6.50
2019-03-28T20:02:17.926Z,6.83
2019-03-28T20:04:50.151Z,6.33
2019-03-28T20:07:22.249Z,6.77
2019-03-28T20:09:57.332Z,7.10
2019-03-28T20:12:28.204Z,6.07
2019-03-28T20:15:00.256Z,7.07
2019-03-28T20:17:31.898Z,7.30
2019-03-28T20:20:04.180Z,7.72
2019-03-28T20:22:36.249Z,7.10
2019-03-28T20:25:07.901Z,6.50
2019-03-28T20:27:40.971Z,6.80
2019-03-28T20:30:12.795Z,6.47
2019-03-28T20:32:44.582Z,6.93
2019-03-28T20:35:16.096Z,6.10
2019-03-28T20:37:47.604Z,6.90
2019-03-28T20:40:19.241Z,6.03
2019-03-28T20:42:50.819Z,6.43
2019-03-28T20:45:23.690Z,5.97
2019-03-28T20:47:55.380Z,5.70
2019-03-28T20:50:27.643Z,7.37
2019-03-28T20:53:00.214Z,6.60
2019-03-28T20:55:31.865Z,6.00
2019-03-28T20:58:03.360Z,6.45
2019-03-28T21:00:41.129Z,7.50
2019-03-28T21:03:12.746Z,6.20
2019-03-28T21:05:45.185Z,6.60
2019-03-28T21:08:16.907Z,7.27
2019-03-28T21:10:48.650Z,7.00
2019-03-28T21:13:20.113Z,7.73
2019-03-28T21:15:51.674Z,6.13
2019-03-28T21:18:23.720Z,7.78
2019-03-28T21:20:55.220Z,7.93
2019-03-28T21:23:26.899Z,7.63
2019-03-28T21:25:58.341Z,7.83
2019-03-28T21:28:30.326Z,7.70
2019-03-28T21:31:02.634Z,8.67
2019-03-28T21:33:34.094Z,7.28
2019-03-28T21:36:05.571Z,7.87
2019-03-28T21:38:37.038Z,8.95
2019-03-28T21:41:08.596Z,7.93
2019-03-28T21:43:40.145Z,8.03
2019-03-28T21:46:11.531Z,8.47
2019-03-28T21:48:43.183Z,7.83
2019-03-28T21:51:15.241Z,9.63
2019-03-28T21:53:46.769Z,8.87
2019-03-28T21:56:18.288Z,8.30
2019-03-28T21:58:49.699Z,9.67
2019-03-28T22:01:21.363Z,8.00
2019-03-28T22:03:53.922Z,8.43
2019-03-28T22:06:25.654Z,9.67
2019-03-28T22:08:57.279Z,9.17
2019-03-28T22:11:29.078Z,9.00
2019-03-28T22:14:00.757Z,9.00
2019-03-28T22:16:32.480Z,7.70
2019-03-28T22:19:05.414Z,7.78
2019-03-28T22:21:36.933Z,8.30
2019-03-28T22:24:08.595Z,8.18
2019-03-28T22:26:40.050Z,8.88
2019-03-28T22:29:11.923Z,7.50
2019-03-28T22:31:43.920Z,7.17
2019-03-28T22:34:15.299Z,7.57
2019-03-28T22:36:57.118Z,8.33
2019-03-28T22:39:20.321Z,7.33
2019-03-28T22:41:51.697Z,7.60
2019-03-28T22:44:24.242Z,7.77
2019-03-28T22:46:56.538Z,7.93
2019-03-28T22:49:27.918Z,8.37
2019-03-28T22:51:59.693Z,7.67
2019-03-28T22:54:31.558Z,7.67
2019-03-28T22:57:04.055Z,8.53
2019-03-28T22:59:35.426Z,9.00
2019-03-28T23:02:07.026Z,8.60
2019-03-28T23:04:39.360Z,8.77
2019-03-28T23:07:11.531Z,8.10
2019-03-28T23:09:42.940Z,7.90
2019-03-28T23:12:15.433Z,9.67
2019-03-28T23:14:47.224Z,8.87
2019-03-28T23:17:18.631Z,8.90
2019-03-28T23:19:50.319Z,8.67
2019-03-28T23:22:21.830Z,9.23
2019-03-28T23:24:53.221Z,8.87
2019-03-28T23:27:25.389Z,9.13
2019-03-28T23:29:57.938Z,9.07
2019-03-28T23:32:29.601Z,9.70
2019-03-28T23:35:01.261Z,9.77
2019-03-28T23:37:33.170Z,9.07
2019-03-28T23:40:05.054Z,8.77
2019-03-28T23:42:36.811Z,8.00
2019-03-28T23:45:11.394Z,9.00
2019-03-28T23:47:42.944Z,8.80
2019-03-28T23:50:14.950Z,9.83
2019-03-28T23:52:46.619Z,9.03
2019-03-28T23:55:18.966Z,8.43
2019-03-28T23:57:50.809Z,8.60
